Accueil
METAR-TAF:

METAR-TAF

Aéroports :

Base d'aéronautique navale de Lanvéoc-Poulmic

Lanvéoc, France

latitude: 48-17N, longitude: 004-26W, altitude: 87 m

Observation

Le bulletin a été fait il y a 43 minutes, à 17:00 UTC
Vent 10 kt de nord
Température 11°C
Humidité 71%
Pression 1031 hPa
Visibilité 10 km ou plus
Nuages épars à une hauteur de 2600 ft
Nuages épars à une hauteur de 3100 ft

METAR: LFRL 241700Z AUTO 01010KT 9999 SCT026 SCT031 11/06 Q1031

Heure: 18:43 (17:43 UTC)


TAF: absent

Observations et prévisions météorologiques de plus de 4000 aéroports (messages METAR et TAF).

Les stations disponibles sont représentées par des disques jaunes et rouges sur la carte.

Passer la souris dessus pour voir le nom de la station.

Cliquer dessus pour voir les observations et prévisions météorologiques.

Pour changer de carte: cliquez sur les boutons verts avec une croix noire pour zoomer, sur le bouton vert avec un tiret pour effectuer un zoom arrière, ou sur les flèches vertes pour les cartes adjacentes.


METAR-TAF: